Montpelier, Maryland
Current Conditions -  °F | °C
As of 10:42 PM on Monday 22 Dec 2014 (Local Time) from KFME Reporting Station
Overcast Overcast  
Wind Chill: 34°   Ceiling: 700
Heat Index: 37°   Visibility: 3mi
Dew Point: 36°   Wind: 5mph
Humidity: 93%   Direction: 40°NE
Pressure: 30.11"   Gusts: NA
Location:  39.0656°N, 76.8397°W
Report Text: KFME 230342Z AUTO 04004KT 3SM OVC007 03/02 A3011 RMK AO1
Loading
Personal Weather Stations






























Interactive Weather Map New forecast layout! Learn more

10-Day Weather Forecast

Advertisements
Track Severe Weather on mobile